sensor_id;sensor_type;location;lat;lon;timestamp;pressure;altitude;pressure_sealevel;temperature;humidity
72612;BME280;60655;52.182;4.474;2023-06-10T00:01:36;101421.72;;;21.82;52.76
72612;BME280;60655;52.182;4.474;2023-06-10T00:03:37;101418.19;;;21.82;52.91
72612;BME280;60655;52.182;4.474;2023-06-10T00:05:38;101409.28;;;21.76;53.02
72612;BME280;60655;52.182;4.474;2023-06-10T00:07:40;101388.53;;;21.62;52.67
72612;BME280;60655;52.182;4.474;2023-06-10T00:09:42;101410.38;;;21.70;52.99
72612;BME280;60655;52.182;4.474;2023-06-10T00:11:43;101411.72;;;21.73;53.32
72612;BME280;60655;52.182;4.474;2023-06-10T00:13:44;101390.44;;;21.56;53.46
72612;BME280;60655;52.182;4.474;2023-06-10T00:15:46;101404.78;;;21.56;53.36
72612;BME280;60655;52.182;4.474;2023-06-10T00:17:47;101402.09;;;21.51;53.65
72612;BME280;60655;52.182;4.474;2023-06-10T00:19:49;101420.72;;;21.58;53.67
72612;BME280;60655;52.182;4.474;2023-06-10T00:21:51;101413.97;;;21.61;53.14
72612;BME280;60655;52.182;4.474;2023-06-10T00:23:53;101414.50;;;21.58;53.56
72612;BME280;60655;52.182;4.474;2023-06-10T00:25:55;101408.28;;;21.57;53.26
72612;BME280;60655;52.182;4.474;2023-06-10T00:27:56;101420.47;;;21.49;53.64
72612;BME280;60655;52.182;4.474;2023-06-10T00:29:57;101416.97;;;21.44;53.88
72612;BME280;60655;52.182;4.474;2023-06-10T00:31:59;101402.63;;;21.48;53.34
72612;BME280;60655;52.182;4.474;2023-06-10T00:34:00;101411.56;;;21.39;53.64
72612;BME280;60655;52.182;4.474;2023-06-10T00:36:01;101413.19;;;21.45;54.03
72612;BME280;60655;52.182;4.474;2023-06-10T00:38:02;101406.69;;;21.41;53.93
72612;BME280;60655;52.182;4.474;2023-06-10T00:40:05;101412.41;;;21.34;54.23
72612;BME280;60655;52.182;4.474;2023-06-10T00:42:06;101413.44;;;21.38;53.68
72612;BME280;60655;52.182;4.474;2023-06-10T00:44:08;101424.31;;;21.33;53.98
72612;BME280;60655;52.182;4.474;2023-06-10T00:46:10;101413.47;;;21.18;54.68
72612;BME280;60655;52.182;4.474;2023-06-10T00:48:12;101409.97;;;21.17;54.40
72612;BME280;60655;52.182;4.474;2023-06-10T00:50:14;101415.91;;;21.19;54.40
72612;BME280;60655;52.182;4.474;2023-06-10T00:52:16;101410.78;;;21.18;54.37
72612;BME280;60655;52.182;4.474;2023-06-10T00:54:17;101424.28;;;21.13;54.73
72612;BME280;60655;52.182;4.474;2023-06-10T00:56:18;101416.72;;;21.10;54.73
72612;BME280;60655;52.182;4.474;2023-06-10T00:58:19;101418.59;;;21.09;54.31
72612;BME280;60655;52.182;4.474;2023-06-10T01:00:21;101416.19;;;21.08;54.65
72612;BME280;60655;52.182;4.474;2023-06-10T01:02:22;101411.06;;;20.91;55.00
72612;BME280;60655;52.182;4.474;2023-06-10T01:04:24;101408.38;;;21.01;55.18
72612;BME280;60655;52.182;4.474;2023-06-10T01:08:43;101413.22;;;20.89;54.64
72612;BME280;60655;52.182;4.474;2023-06-10T01:10:55;101417.00;;;20.83;55.01
72612;BME280;60655;52.182;4.474;2023-06-10T01:13:00;101403.22;;;20.84;54.81
72612;BME280;60655;52.182;4.474;2023-06-10T01:15:04;101413.50;;;20.87;54.55
72612;BME280;60655;52.182;4.474;2023-06-10T01:17:06;101409.75;;;20.78;54.81
72612;BME280;60655;52.182;4.474;2023-06-10T01:19:11;101407.31;;;20.72;54.99
72612;BME280;60655;52.182;4.474;2023-06-10T01:21:19;101407.03;;;20.78;54.34
72612;BME280;60655;52.182;4.474;2023-06-10T01:23:20;101412.41;;;20.83;54.73
72612;BME280;60655;52.182;4.474;2023-06-10T01:25:23;101418.09;;;20.82;54.44
72612;BME280;60655;52.182;4.474;2023-06-10T01:27:30;101423.50;;;20.77;54.94
72612;BME280;60655;52.182;4.474;2023-06-10T01:29:39;101417.03;;;20.73;54.91
72612;BME280;60655;52.182;4.474;2023-06-10T01:31:49;101412.97;;;20.65;54.59
72612;BME280;60655;52.182;4.474;2023-06-10T01:33:53;101396.19;;;20.53;55.11
72612;BME280;60655;52.182;4.474;2023-06-10T01:35:58;101416.19;;;20.67;55.25
72612;BME280;60655;52.182;4.474;2023-06-10T01:38:01;101418.34;;;20.60;54.87
72612;BME280;60655;52.182;4.474;2023-06-10T01:40:03;101416.47;;;20.66;55.07
72612;BME280;60655;52.182;4.474;2023-06-10T01:42:07;101422.97;;;20.70;54.93
72612;BME280;60655;52.182;4.474;2023-06-10T01:44:09;101397.28;;;20.47;54.95
72612;BME280;60655;52.182;4.474;2023-06-10T01:46:10;101409.97;;;20.56;54.69
72612;BME280;60655;52.182;4.474;2023-06-10T01:48:11;101419.97;;;20.61;55.14
72612;BME280;60655;52.182;4.474;2023-06-10T01:50:12;101414.56;;;20.56;55.18
72612;BME280;60655;52.182;4.474;2023-06-10T01:52:14;101416.44;;;20.50;54.78
72612;BME280;60655;52.182;4.474;2023-06-10T01:54:15;101411.88;;;20.46;55.16
72612;BME280;60655;52.182;4.474;2023-06-10T01:56:16;101396.41;;;20.31;55.35
72612;BME280;60655;52.182;4.474;2023-06-10T01:58:20;101413.97;;;20.34;55.43
72612;BME280;60655;52.182;4.474;2023-06-10T02:00:21;101417.22;;;20.36;55.62
72612;BME280;60655;52.182;4.474;2023-06-10T02:02:22;101410.44;;;20.28;55.06
72612;BME280;60655;52.182;4.474;2023-06-10T02:04:23;101423.13;;;20.28;55.28
72612;BME280;60655;52.182;4.474;2023-06-10T02:06:24;101419.88;;;20.26;55.46
72612;BME280;60655;52.182;4.474;2023-06-10T02:08:25;101420.94;;;20.24;55.27
72612;BME280;60655;52.182;4.474;2023-06-10T02:10:26;101415.53;;;20.14;55.39
72612;BME280;60655;52.182;4.474;2023-06-10T02:12:27;101418.22;;;20.09;55.46
72612;BME280;60655;52.182;4.474;2023-06-10T02:14:28;101410.09;;;20.04;55.29
72612;BME280;60655;52.182;4.474;2023-06-10T02:16:29;101420.94;;;20.14;55.40
72612;BME280;60655;52.182;4.474;2023-06-10T02:18:32;101415.75;;;20.03;55.18
72612;BME280;60655;52.182;4.474;2023-06-10T02:20:34;101420.66;;;20.11;55.11
72612;BME280;60655;52.182;4.474;2023-06-10T02:22:35;101414.69;;;20.04;54.67
72612;BME280;60655;52.182;4.474;2023-06-10T02:24:36;101414.66;;;19.94;54.76
72612;BME280;60655;52.182;4.474;2023-06-10T02:26:40;101427.88;;;20.00;54.81
72612;BME280;60655;52.182;4.474;2023-06-10T02:28:46;101410.03;;;19.84;54.75
72612;BME280;60655;52.182;4.474;2023-06-10T02:30:47;101431.13;;;19.92;54.73
72612;BME280;60655;52.182;4.474;2023-06-10T02:32:48;101426.50;;;19.87;54.59
72612;BME280;60655;52.182;4.474;2023-06-10T02:34:51;101433.53;;;19.88;54.83
72612;BME280;60655;52.182;4.474;2023-06-10T02:36:53;101414.31;;;19.75;54.52
72612;BME280;60655;52.182;4.474;2023-06-10T02:38:54;101429.72;;;19.84;54.54
72612;BME280;60655;52.182;4.474;2023-06-10T02:40:55;101440.78;;;19.83;54.80
72612;BME280;60655;52.182;4.474;2023-06-10T02:42:58;101436.44;;;19.77;55.19
72612;BME280;60655;52.182;4.474;2023-06-10T02:44:59;101435.63;;;19.76;55.26
72612;BME280;60655;52.182;4.474;2023-06-10T02:47:01;101409.41;;;19.62;55.21
72612;BME280;60655;52.182;4.474;2023-06-10T02:49:02;101436.41;;;19.72;55.69
72612;BME280;60655;52.182;4.474;2023-06-10T02:51:03;101433.44;;;19.73;55.48
72612;BME280;60655;52.182;4.474;2023-06-10T02:53:04;101402.09;;;19.57;55.40
72612;BME280;60655;52.182;4.474;2023-06-10T02:55:05;101417.53;;;19.72;55.99
72612;BME280;60655;52.182;4.474;2023-06-10T02:57:07;101428.84;;;19.69;55.72
72612;BME280;60655;52.182;4.474;2023-06-10T02:59:08;101433.94;;;19.65;55.73
72612;BME280;60655;52.182;4.474;2023-06-10T03:01:09;101432.03;;;19.61;55.95
72612;BME280;60655;52.182;4.474;2023-06-10T03:03:12;101433.13;;;19.65;55.85
72612;BME280;60655;52.182;4.474;2023-06-10T03:05:14;101427.22;;;19.63;55.96
72612;BME280;60655;52.182;4.474;2023-06-10T03:07:15;101429.91;;;19.63;56.06
72612;BME280;60655;52.182;4.474;2023-06-10T03:09:17;101429.84;;;19.52;56.44
72612;BME280;60655;52.182;4.474;2023-06-10T03:11:18;101416.00;;;19.44;56.42
72612;BME280;60655;52.182;4.474;2023-06-10T03:13:20;101433.09;;;19.54;56.43
72612;BME280;60655;52.182;4.474;2023-06-10T03:15:22;101418.91;;;19.37;56.99
72612;BME280;60655;52.182;4.474;2023-06-10T03:17:25;101398.34;;;19.21;57.14
72612;BME280;60655;52.182;4.474;2023-06-10T03:19:26;101438.41;;;19.49;57.03
72612;BME280;60655;52.182;4.474;2023-06-10T03:21:27;101429.22;;;19.45;57.47
72612;BME280;60655;52.182;4.474;2023-06-10T03:23:28;101428.13;;;19.41;57.25
72612;BME280;60655;52.182;4.474;2023-06-10T03:25:29;101438.63;;;19.43;56.96
72612;BME280;60655;52.182;4.474;2023-06-10T03:27:31;101426.75;;;19.34;57.05
72612;BME280;60655;52.182;4.474;2023-06-10T03:29:53;101442.09;;;19.33;57.55
72612;BME280;60655;52.182;4.474;2023-06-10T03:31:54;101443.16;;;19.37;57.24
72612;BME280;60655;52.182;4.474;2023-06-10T03:33:55;101447.19;;;19.35;57.44
72612;BME280;60655;52.182;4.474;2023-06-10T03:35:56;101443.97;;;19.33;57.84
72612;BME280;60655;52.182;4.474;2023-06-10T03:37:57;101448.81;;;19.31;57.74
72612;BME280;60655;52.182;4.474;2023-06-10T03:39:58;101455.25;;;19.30;57.55
72612;BME280;60655;52.182;4.474;2023-06-10T03:41:59;101452.28;;;19.26;57.76
72612;BME280;60655;52.182;4.474;2023-06-10T03:44:02;101451.72;;;19.24;57.87
72612;BME280;60655;52.182;4.474;2023-06-10T03:46:04;101452.56;;;19.30;58.25
72612;BME280;60655;52.182;4.474;2023-06-10T03:48:05;101453.09;;;19.27;57.97
72612;BME280;60655;52.182;4.474;2023-06-10T03:50:07;101435.97;;;19.11;58.10
72612;BME280;60655;52.182;4.474;2023-06-10T03:52:08;101459.75;;;19.19;58.38
72612;BME280;60655;52.182;4.474;2023-06-10T03:54:10;101458.13;;;19.18;58.67
72612;BME280;60655;52.182;4.474;2023-06-10T03:56:11;101432.19;;;19.07;58.92
72612;BME280;60655;52.182;4.474;2023-06-10T03:58:14;101452.78;;;19.23;58.67
72612;BME280;60655;52.182;4.474;2023-06-10T04:00:16;101454.88;;;19.16;58.92
72612;BME280;60655;52.182;4.474;2023-06-10T04:02:18;101437.03;;;19.05;58.85
72612;BME280;60655;52.182;4.474;2023-06-10T04:04:19;101459.72;;;19.14;59.12
72612;BME280;60655;52.182;4.474;2023-06-10T04:06:20;101457.53;;;19.11;59.30
72612;BME280;60655;52.182;4.474;2023-06-10T04:08:23;101453.81;;;19.17;59.39
72612;BME280;60655;52.182;4.474;2023-06-10T04:10:24;101457.09;;;19.24;59.25
72612;BME280;60655;52.182;4.474;2023-06-10T04:12:25;101458.13;;;19.18;59.63
72612;BME280;60655;52.182;4.474;2023-06-10T04:14:26;101458.44;;;19.21;59.72
72612;BME280;60655;52.182;4.474;2023-06-10T04:16:28;101452.16;;;19.11;59.59
72612;BME280;60655;52.182;4.474;2023-06-10T04:18:29;101447.00;;;19.09;59.78
72612;BME280;60655;52.182;4.474;2023-06-10T04:20:30;101464.84;;;19.15;59.97
72612;BME280;60655;52.182;4.474;2023-06-10T04:22:31;101468.41;;;19.21;60.38
72612;BME280;60655;52.182;4.474;2023-06-10T04:24:32;101454.88;;;19.16;60.30
72612;BME280;60655;52.182;4.474;2023-06-10T04:26:35;101455.66;;;19.11;59.95
72612;BME280;60655;52.182;4.474;2023-06-10T04:28:36;101473.19;;;19.14;60.15
72612;BME280;60655;52.182;4.474;2023-06-10T04:30:37;101478.66;;;19.24;60.19
72612;BME280;60655;52.182;4.474;2023-06-10T04:32:38;101481.06;;;19.20;60.78
72612;BME280;60655;52.182;4.474;2023-06-10T04:34:39;101485.63;;;19.20;60.47
72612;BME280;60655;52.182;4.474;2023-06-10T04:36:40;101477.28;;;19.21;60.43
72612;BME280;60655;52.182;4.474;2023-06-10T04:38:42;101485.13;;;19.23;61.27
72612;BME280;60655;52.182;4.474;2023-06-10T04:40:43;101490.75;;;19.21;61.08
72612;BME280;60655;52.182;4.474;2023-06-10T04:43:03;101482.47;;;19.28;60.82
72612;BME280;60655;52.182;4.474;2023-06-10T04:45:05;101482.16;;;19.25;60.93
72612;BME280;60655;52.182;4.474;2023-06-10T04:47:06;101486.78;;;19.29;60.85
72612;BME280;60655;52.182;4.474;2023-06-10T04:49:08;101485.66;;;19.25;61.19
72612;BME280;60655;52.182;4.474;2023-06-10T04:51:09;101489.78;;;19.38;60.73
72612;BME280;60655;52.182;4.474;2023-06-10T04:53:10;101497.63;;;19.39;60.88
72612;BME280;60655;52.182;4.474;2023-06-10T04:57:21;101474.13;;;19.35;60.87
72612;BME280;60655;52.182;4.474;2023-06-10T04:59:22;101494.16;;;19.44;60.74
72612;BME280;60655;52.182;4.474;2023-06-10T05:01:23;101454.41;;;19.24;60.96
72612;BME280;60655;52.182;4.474;2023-06-10T05:03:24;101492.63;;;19.53;61.33
72612;BME280;60655;52.182;4.474;2023-06-10T05:05:25;101489.69;;;19.54;61.02
72612;BME280;60655;52.182;4.474;2023-06-10T05:10:05;101490.19;;;19.51;60.79
72612;BME280;60655;52.182;4.474;2023-06-10T05:14:30;101488.38;;;19.62;61.20
72612;BME280;60655;52.182;4.474;2023-06-10T05:16:32;101494.91;;;19.71;60.62
72612;BME280;60655;52.182;4.474;2023-06-10T05:21:12;101486.56;;;19.73;60.77
72612;BME280;60655;52.182;4.474;2023-06-10T05:23:13;101487.44;;;19.83;59.96
72612;BME280;60655;52.182;4.474;2023-06-10T05:25:14;101488.25;;;19.84;60.39
72612;BME280;60655;52.182;4.474;2023-06-10T05:29:20;101459.00;;;19.66;60.77
72612;BME280;60655;52.182;4.474;2023-06-10T05:31:21;101486.41;;;20.00;60.17
72612;BME280;60655;52.182;4.474;2023-06-10T05:33:23;101486.19;;;20.06;60.05
72612;BME280;60655;52.182;4.474;2023-06-10T05:35:24;101495.09;;;20.07;60.57
72612;BME280;60655;52.182;4.474;2023-06-10T05:37:25;101490.78;;;20.11;60.36
72612;BME280;60655;52.182;4.474;2023-06-10T05:39:26;101493.22;;;20.12;60.24
72612;BME280;60655;52.182;4.474;2023-06-10T05:41:28;101500.53;;;20.17;59.76
72612;BME280;60655;52.182;4.474;2023-06-10T05:43:29;101495.41;;;20.26;60.05
72612;BME280;60655;52.182;4.474;2023-06-10T05:45:30;101504.63;;;20.30;59.72
72612;BME280;60655;52.182;4.474;2023-06-10T05:47:31;101486.81;;;20.29;59.79
72612;BME280;60655;52.182;4.474;2023-06-10T05:49:52;101495.28;;;20.47;59.04
72612;BME280;60655;52.182;4.474;2023-06-10T05:51:53;101493.63;;;20.51;58.60
72612;BME280;60655;52.182;4.474;2023-06-10T05:53:56;101504.19;;;20.48;58.86
72612;BME280;60655;52.182;4.474;2023-06-10T05:55:58;101506.34;;;20.56;58.24
72612;BME280;60655;52.182;4.474;2023-06-10T05:58:00;101502.56;;;20.57;58.25
72612;BME280;60655;52.182;4.474;2023-06-10T06:00:01;101487.72;;;20.60;58.41
72612;BME280;60655;52.182;4.474;2023-06-10T06:02:02;101497.47;;;20.71;58.19
72612;BME280;60655;52.182;4.474;2023-06-10T06:04:04;101492.91;;;20.71;58.16
72612;BME280;60655;52.182;4.474;2023-06-10T06:06:06;101499.38;;;20.85;58.22
72612;BME280;60655;52.182;4.474;2023-06-10T06:08:08;101492.38;;;20.95;57.72
72612;BME280;60655;52.182;4.474;2023-06-10T06:10:09;101465.09;;;20.86;57.19
72612;BME280;60655;52.182;4.474;2023-06-10T06:12:10;101495.38;;;21.03;57.64
72612;BME280;60655;52.182;4.474;2023-06-10T06:14:11;101474.53;;;21.14;57.18
72612;BME280;60655;52.182;4.474;2023-06-10T06:16:12;101471.84;;;21.14;57.15
72612;BME280;60655;52.182;4.474;2023-06-10T06:18:13;101496.19;;;21.29;56.67
72612;BME280;60655;52.182;4.474;2023-06-10T06:20:14;101467.25;;;21.19;56.46
72612;BME280;60655;52.182;4.474;2023-06-10T06:22:15;101489.16;;;21.28;56.21
72612;BME280;60655;52.182;4.474;2023-06-10T06:24:20;101505.91;;;21.40;56.13
72612;BME280;60655;52.182;4.474;2023-06-10T06:26:21;101498.59;;;21.41;56.27
72612;BME280;60655;52.182;4.474;2023-06-10T06:28:22;101494.81;;;21.37;56.25
72612;BME280;60655;52.182;4.474;2023-06-10T06:30:23;101501.84;;;21.43;55.78
72612;BME280;60655;52.182;4.474;2023-06-10T06:32:25;101492.13;;;21.42;56.64
72612;BME280;60655;52.182;4.474;2023-06-10T06:34:28;101491.84;;;21.53;55.63
72612;BME280;60655;52.182;4.474;2023-06-10T06:36:29;101497.19;;;21.74;55.49
72612;BME280;60655;52.182;4.474;2023-06-10T06:38:30;101497.47;;;21.77;56.20
72612;BME280;60655;52.182;4.474;2023-06-10T06:40:31;101497.47;;;21.67;55.84
72612;BME280;60655;52.182;4.474;2023-06-10T06:42:32;101491.78;;;21.69;55.29
72612;BME280;60655;52.182;4.474;2023-06-10T06:44:33;101505.03;;;21.85;55.11
72612;BME280;60655;52.182;4.474;2023-06-10T06:46:36;101504.44;;;22.04;55.02
72612;BME280;60655;52.182;4.474;2023-06-10T06:48:37;101503.59;;;22.18;54.13
72612;BME280;60655;52.182;4.474;2023-06-10T06:50:38;101509.00;;;22.13;55.27
72612;BME280;60655;52.182;4.474;2023-06-10T06:59:32;101502.44;;;22.24;54.40
72612;BME280;60655;52.182;4.474;2023-06-10T07:01:33;101515.16;;;22.29;53.35
72612;BME280;60655;52.182;4.474;2023-06-10T07:11:10;101518.16;;;22.77;53.68
72612;BME280;60655;52.182;4.474;2023-06-10T07:15:20;101481.88;;;22.78;52.58
72612;BME280;60655;52.182;4.474;2023-06-10T07:20:18;101513.91;;;23.10;51.35
72612;BME280;60655;52.182;4.474;2023-06-10T07:24:29;101517.53;;;23.29;52.02
72612;BME280;60655;52.182;4.474;2023-06-10T07:26:31;101518.16;;;23.16;51.66
72612;BME280;60655;52.182;4.474;2023-06-10T07:28:32;101517.63;;;23.14;51.97
72612;BME280;60655;52.182;4.474;2023-06-10T07:30:33;101519.53;;;23.13;51.74
72612;BME280;60655;52.182;4.474;2023-06-10T07:36:58;101517.03;;;23.56;49.83
72612;BME280;60655;52.182;4.474;2023-06-10T07:45:50;101521.44;;;23.76;50.47
72612;BME280;60655;52.182;4.474;2023-06-10T07:50:00;101489.19;;;23.69;49.45
72612;BME280;60655;52.182;4.474;2023-06-10T07:52:01;101517.28;;;23.83;48.74
72612;BME280;60655;52.182;4.474;2023-06-10T07:54:03;101510.81;;;23.79;48.76
72612;BME280;60655;52.182;4.474;2023-06-10T07:56:04;101511.47;;;23.95;48.81
72612;BME280;60655;52.182;4.474;2023-06-10T08:09:44;101499.97;;;24.46;48.81
72612;BME280;60655;52.182;4.474;2023-06-10T08:12:06;101520.31;;;24.67;49.08
72612;BME280;60655;52.182;4.474;2023-06-10T08:20:49;101510.56;;;25.04;48.37
72612;BME280;60655;52.182;4.474;2023-06-10T08:22:50;101516.41;;;24.92;47.26
72612;BME280;60655;52.182;4.474;2023-06-10T08:24:51;101524.25;;;24.94;48.31
72612;BME280;60655;52.182;4.474;2023-06-10T08:26:52;101524.66;;;25.06;47.82
72612;BME280;60655;52.182;4.474;2023-06-10T08:28:53;101516.50;;;25.06;47.85
72612;BME280;60655;52.182;4.474;2023-06-10T08:30:55;101501.72;;;25.12;47.34
72612;BME280;60655;52.182;4.474;2023-06-10T08:32:56;101516.69;;;25.42;47.30
72612;BME280;60655;52.182;4.474;2023-06-10T08:34:57;101520.03;;;25.52;47.30
72612;BME280;60655;52.182;4.474;2023-06-10T08:37:18;101511.63;;;25.81;46.54
72612;BME280;60655;52.182;4.474;2023-06-10T08:41:35;101520.63;;;25.96;46.74
72612;BME280;60655;52.182;4.474;2023-06-10T08:44:30;101515.06;;;26.14;46.04
72612;BME280;60655;52.182;4.474;2023-06-10T08:46:24;101518.19;;;26.35;45.39
72612;BME280;60655;52.182;4.474;2023-06-10T08:48:28;101515.69;;;26.61;45.83
72612;BME280;60655;52.182;4.474;2023-06-10T08:50:30;101518.19;;;26.71;44.72
72612;BME280;60655;52.182;4.474;2023-06-10T08:52:36;101496.94;;;26.60;44.88
72612;BME280;60655;52.182;4.474;2023-06-10T08:54:38;101519.19;;;26.53;44.86
72612;BME280;60655;52.182;4.474;2023-06-10T08:56:39;101501.66;;;26.18;45.42
72612;BME280;60655;52.182;4.474;2023-06-10T08:58:42;101518.91;;;26.27;45.48
72612;BME280;60655;52.182;4.474;2023-06-10T09:00:44;101508.59;;;26.24;44.93
72612;BME280;60655;52.182;4.474;2023-06-10T09:02:46;101518.91;;;26.27;44.60
72612;BME280;60655;52.182;4.474;2023-06-10T09:04:49;101493.47;;;26.18;44.75
72612;BME280;60655;52.182;4.474;2023-06-10T09:11:14;101500.31;;;26.79;44.94
72612;BME280;60655;52.182;4.474;2023-06-10T09:13:22;101518.59;;;26.78;43.60
72612;BME280;60655;52.182;4.474;2023-06-10T09:18:13;101521.22;;;27.06;43.44
72612;BME280;60655;52.182;4.474;2023-06-10T09:20:14;101504.06;;;27.05;43.33
72612;BME280;60655;52.182;4.474;2023-06-10T09:22:15;101517.09;;;27.08;43.38
72612;BME280;60655;52.182;4.474;2023-06-10T09:24:16;101521.59;;;27.13;43.51
72612;BME280;60655;52.182;4.474;2023-06-10T09:26:17;101513.25;;;27.09;42.71
72612;BME280;60655;52.182;4.474;2023-06-10T09:28:18;101525.56;;;27.29;44.11
72612;BME280;60655;52.182;4.474;2023-06-10T09:30:30;101507.16;;;27.43;43.03
72612;BME280;60655;52.182;4.474;2023-06-10T09:32:38;101507.78;;;27.63;43.53
72612;BME280;60655;52.182;4.474;2023-06-10T09:34:39;101517.19;;;27.87;42.63
72612;BME280;60655;52.182;4.474;2023-06-10T09:36:41;101515.78;;;27.99;41.96
72612;BME280;60655;52.182;4.474;2023-06-10T09:38:42;101486.94;;;27.67;41.41
72612;BME280;60655;52.182;4.474;2023-06-10T09:40:48;101514.34;;;28.01;41.93
72612;BME280;60655;52.182;4.474;2023-06-10T09:42:58;101521.56;;;28.06;40.38
72612;BME280;60655;52.182;4.474;2023-06-10T09:44:59;101525.31;;;28.18;40.94
72612;BME280;60655;52.182;4.474;2023-06-10T09:47:00;101523.22;;;28.15;40.52
72612;BME280;60655;52.182;4.474;2023-06-10T09:49:01;101510.34;;;27.99;41.26
72612;BME280;60655;52.182;4.474;2023-06-10T09:51:08;101512.09;;;27.95;41.10
72612;BME280;60655;52.182;4.474;2023-06-10T09:53:10;101499.41;;;27.99;40.63
72612;BME280;60655;52.182;4.474;2023-06-10T09:55:11;101524.88;;;28.25;39.94
72612;BME280;60655;52.182;4.474;2023-06-10T09:57:12;101530.84;;;28.44;39.67
72612;BME280;60655;52.182;4.474;2023-06-10T09:59:15;101517.34;;;28.39;38.92
72612;BME280;60655;52.182;4.474;2023-06-10T10:01:16;101517.84;;;28.67;39.20
72612;BME280;60655;52.182;4.474;2023-06-10T10:03:23;101522.34;;;28.80;39.18
72612;BME280;60655;52.182;4.474;2023-06-10T10:05:24;101514.78;;;28.77;38.75
72612;BME280;60655;52.182;4.474;2023-06-10T10:07:25;101511.91;;;28.56;38.13
72612;BME280;60655;52.182;4.474;2023-06-10T10:09:26;101508.22;;;28.52;38.78
72612;BME280;60655;52.182;4.474;2023-06-10T10:11:27;101515.28;;;28.97;39.04
72612;BME280;60655;52.182;4.474;2023-06-10T10:13:33;101510.47;;;29.02;38.78
72612;BME280;60655;52.182;4.474;2023-06-10T10:15:35;101512.66;;;29.17;38.32
72612;BME280;60655;52.182;4.474;2023-06-10T10:17:40;101514.47;;;29.13;37.42
72612;BME280;60655;52.182;4.474;2023-06-10T10:19:50;101516.03;;;29.23;37.34
72612;BME280;60655;52.182;4.474;2023-06-10T10:22:06;101498.19;;;29.17;36.90
72612;BME280;60655;52.182;4.474;2023-06-10T10:24:18;101503.66;;;29.17;36.10
72612;BME280;60655;52.182;4.474;2023-06-10T10:26:22;101485.50;;;29.04;36.96
72612;BME280;60655;52.182;4.474;2023-06-10T10:28:39;101512.06;;;29.12;36.45
72612;BME280;60655;52.182;4.474;2023-06-10T10:30:45;101503.78;;;29.38;36.79
72612;BME280;60655;52.182;4.474;2023-06-10T10:35:26;101502.97;;;29.84;36.06
72612;BME280;60655;52.182;4.474;2023-06-10T10:37:28;101495.50;;;29.64;36.06
72612;BME280;60655;52.182;4.474;2023-06-10T10:39:29;101496.69;;;29.37;36.52
72612;BME280;60655;52.182;4.474;2023-06-10T10:41:32;101497.31;;;29.51;36.63
72612;BME280;60655;52.182;4.474;2023-06-10T10:43:33;101504.25;;;29.40;34.97
72612;BME280;60655;52.182;4.474;2023-06-10T10:45:35;101497.13;;;29.65;36.07
72612;BME280;60655;52.182;4.474;2023-06-10T10:47:36;101493.66;;;29.76;35.93
72612;BME280;60655;52.182;4.474;2023-06-10T10:49:39;101496.00;;;29.95;36.12
72612;BME280;60655;52.182;4.474;2023-06-10T10:51:59;101494.44;;;30.15;35.72
72612;BME280;60655;52.182;4.474;2023-06-10T10:54:13;101499.56;;;29.87;35.92
72612;BME280;60655;52.182;4.474;2023-06-10T10:58:27;101495.84;;;30.00;35.19
72612;BME280;60655;52.182;4.474;2023-06-10T11:00:43;101492.59;;;29.98;35.34
72612;BME280;60655;52.182;4.474;2023-06-10T11:02:45;101495.25;;;29.77;35.25
72612;BME280;60655;52.182;4.474;2023-06-10T11:04:48;101461.97;;;29.67;35.92
72612;BME280;60655;52.182;4.474;2023-06-10T11:06:52;101487.00;;;29.86;34.76
72612;BME280;60655;52.182;4.474;2023-06-10T11:08:54;101485.88;;;29.87;35.31
72612;BME280;60655;52.182;4.474;2023-06-10T11:10:55;101479.94;;;29.85;35.04
72612;BME280;60655;52.182;4.474;2023-06-10T11:12:57;101491.38;;;30.16;34.72
72612;BME280;60655;52.182;4.474;2023-06-10T11:14:59;101490.72;;;30.19;35.00
72612;BME280;60655;52.182;4.474;2023-06-10T11:17:18;101452.13;;;30.04;35.10
72612;BME280;60655;52.182;4.474;2023-06-10T11:19:36;101484.97;;;30.54;35.49
72612;BME280;60655;52.182;4.474;2023-06-10T11:22:04;101483.56;;;30.69;34.53
72612;BME280;60655;52.182;4.474;2023-06-10T11:24:12;101480.03;;;30.47;34.33
72612;BME280;60655;52.182;4.474;2023-06-10T11:26:20;101481.41;;;30.33;34.36
72612;BME280;60655;52.182;4.474;2023-06-10T11:28:28;101472.13;;;30.46;34.00
72612;BME280;60655;52.182;4.474;2023-06-10T11:30:34;101479.03;;;30.52;34.68
72612;BME280;60655;52.182;4.474;2023-06-10T11:32:35;101476.28;;;30.52;34.45
72612;BME280;60655;52.182;4.474;2023-06-10T11:34:36;101475.31;;;30.57;34.19
72612;BME280;60655;52.182;4.474;2023-06-10T11:36:42;101472.06;;;30.75;34.95
72612;BME280;60655;52.182;4.474;2023-06-10T11:38:43;101474.41;;;30.44;34.25
72612;BME280;60655;52.182;4.474;2023-06-10T11:40:51;101473.94;;;30.42;33.85
72612;BME280;60655;52.182;4.474;2023-06-10T11:42:52;101461.81;;;30.43;33.88
72612;BME280;60655;52.182;4.474;2023-06-10T11:45:14;101464.63;;;30.55;34.08
72612;BME280;60655;52.182;4.474;2023-06-10T11:47:18;101471.34;;;30.66;33.96
72612;BME280;60655;52.182;4.474;2023-06-10T11:49:20;101457.72;;;30.58;33.69
72612;BME280;60655;52.182;4.474;2023-06-10T11:51:27;101458.16;;;30.80;33.65
72612;BME280;60655;52.182;4.474;2023-06-10T11:53:29;101463.09;;;30.87;33.32
72612;BME280;60655;52.182;4.474;2023-06-10T11:55:42;101460.69;;;30.98;32.94
72612;BME280;60655;52.182;4.474;2023-06-10T11:57:44;101461.06;;;31.08;33.38
72612;BME280;60655;52.182;4.474;2023-06-10T11:59:44;101452.56;;;30.89;33.10
72612;BME280;60655;52.182;4.474;2023-06-10T12:01:45;101448.00;;;30.93;33.08
72612;BME280;60655;52.182;4.474;2023-06-10T12:03:46;101447.50;;;31.12;32.99
72612;BME280;60655;52.182;4.474;2023-06-10T12:08:11;101456.34;;;31.17;33.20